createdAt,value
2019-02-18T00:09:55.269Z,64.73
2019-02-18T00:40:00.334Z,61.97
2019-02-18T01:10:07.561Z,70.70
2019-02-18T01:40:14.424Z,84.27
2019-02-18T02:10:21.276Z,61.87
2019-02-18T02:40:27.349Z,95.47
2019-02-18T03:10:32.309Z,43.27
2019-02-18T03:40:37.406Z,55.40
2019-02-18T04:10:42.241Z,46.20
2019-02-18T04:40:47.453Z,37.17
2019-02-18T05:10:52.736Z,35.67
2019-02-18T05:40:58.429Z,39.13
2019-02-18T06:11:03.239Z,43.13
2019-02-18T06:41:08.554Z,44.17
2019-02-18T07:41:31.580Z,38.63
2019-02-18T08:11:37.209Z,41.63
2019-02-18T08:41:42.417Z,46.60
2019-02-18T09:11:47.274Z,52.17
2019-02-18T09:41:52.085Z,45.03
2019-02-18T10:11:57.076Z,42.73
2019-02-18T10:42:01.875Z,42.13
2019-02-18T11:12:06.916Z,39.07
2019-02-18T11:42:11.885Z,33.90
2019-02-18T12:12:17.500Z,35.07
2019-02-18T12:42:22.366Z,34.80
2019-02-18T13:12:27.944Z,34.73
2019-02-18T13:42:32.807Z,47.10
2019-02-18T14:12:38.197Z,31.63
2019-02-18T14:42:43.108Z,31.70
2019-02-18T15:12:48.101Z,35.87
2019-02-18T15:42:52.959Z,36.03
2019-02-18T16:12:57.893Z,46.67
2019-02-18T16:43:02.987Z,55.13
2019-02-18T17:13:08.660Z,57.20
2019-02-18T17:43:16.459Z,50.83
2019-02-18T18:13:25.082Z,54.83
2019-02-18T18:43:33.651Z,63.70
2019-02-18T19:13:41.726Z,65.23
2019-02-18T19:43:40.063Z,92.47
2019-02-18T20:13:45.154Z,74.73
2019-02-18T20:43:49.985Z,55.93
2019-02-18T21:13:55.056Z,56.10
2019-02-18T21:43:59.887Z,53.50
2019-02-18T22:14:04.820Z,54.40
2019-02-18T22:44:09.753Z,45.43
2019-02-18T23:14:14.635Z,51.57
2019-02-18T23:44:19.766Z,53.43
